sensor_id;sensor_type;location;lat;lon;timestamp;P1;durP1;ratioP1;P2;durP2;ratioP2
7685;SDS011;3885;51.474;-2.576;2023-02-15T00:01:32;18.53;;;9.50;;
7685;SDS011;3885;51.474;-2.576;2023-02-15T00:04:00;20.30;;;9.30;;
7685;SDS011;3885;51.474;-2.576;2023-02-15T00:06:28;20.80;;;11.40;;
7685;SDS011;3885;51.474;-2.576;2023-02-15T00:08:56;14.80;;;8.50;;
7685;SDS011;3885;51.474;-2.576;2023-02-15T00:11:23;18.73;;;9.73;;
7685;SDS011;3885;51.474;-2.576;2023-02-15T00:14:08;22.90;;;10.33;;
7685;SDS011;3885;51.474;-2.576;2023-02-15T00:16:36;24.20;;;9.57;;
7685;SDS011;3885;51.474;-2.576;2023-02-15T00:19:03;21.33;;;10.10;;
7685;SDS011;3885;51.474;-2.576;2023-02-15T00:21:32;24.23;;;10.23;;
7685;SDS011;3885;51.474;-2.576;2023-02-15T00:24:01;13.10;;;8.33;;
7685;SDS011;3885;51.474;-2.576;2023-02-15T00:26:28;19.20;;;9.83;;
7685;SDS011;3885;51.474;-2.576;2023-02-15T00:28:56;22.80;;;9.50;;
7685;SDS011;3885;51.474;-2.576;2023-02-15T00:31:24;18.07;;;9.97;;
7685;SDS011;3885;51.474;-2.576;2023-02-15T00:33:52;17.43;;;9.73;;
7685;SDS011;3885;51.474;-2.576;2023-02-15T00:36:19;12.93;;;6.80;;
7685;SDS011;3885;51.474;-2.576;2023-02-15T00:38:48;17.27;;;9.80;;
7685;SDS011;3885;51.474;-2.576;2023-02-15T00:41:15;14.63;;;9.00;;
7685;SDS011;3885;51.474;-2.576;2023-02-15T00:43:42;22.07;;;9.60;;
7685;SDS011;3885;51.474;-2.576;2023-02-15T00:46:12;20.00;;;9.20;;
7685;SDS011;3885;51.474;-2.576;2023-02-15T00:48:39;19.83;;;10.00;;
7685;SDS011;3885;51.474;-2.576;2023-02-15T00:51:06;30.63;;;10.57;;
7685;SDS011;3885;51.474;-2.576;2023-02-15T00:53:33;24.97;;;9.93;;
7685;SDS011;3885;51.474;-2.576;2023-02-15T00:56:02;24.97;;;9.80;;
7685;SDS011;3885;51.474;-2.576;2023-02-15T00:58:29;20.73;;;11.13;;
7685;SDS011;3885;51.474;-2.576;2023-02-15T01:01:01;19.80;;;9.47;;
7685;SDS011;3885;51.474;-2.576;2023-02-15T01:03:30;11.87;;;8.03;;
7685;SDS011;3885;51.474;-2.576;2023-02-15T01:05:57;21.97;;;9.50;;
7685;SDS011;3885;51.474;-2.576;2023-02-15T01:08:24;20.90;;;9.23;;
7685;SDS011;3885;51.474;-2.576;2023-02-15T01:10:52;22.40;;;10.20;;
7685;SDS011;3885;51.474;-2.576;2023-02-15T01:13:20;16.40;;;9.77;;
7685;SDS011;3885;51.474;-2.576;2023-02-15T01:15:52;22.07;;;10.87;;
7685;SDS011;3885;51.474;-2.576;2023-02-15T01:18:19;24.27;;;10.47;;
7685;SDS011;3885;51.474;-2.576;2023-02-15T01:20:46;31.87;;;9.93;;
7685;SDS011;3885;51.474;-2.576;2023-02-15T01:23:13;18.90;;;9.57;;
7685;SDS011;3885;51.474;-2.576;2023-02-15T01:25:40;23.90;;;10.23;;
7685;SDS011;3885;51.474;-2.576;2023-02-15T01:28:08;21.83;;;10.17;;
7685;SDS011;3885;51.474;-2.576;2023-02-15T01:30:36;19.30;;;10.47;;
7685;SDS011;3885;51.474;-2.576;2023-02-15T01:33:03;17.40;;;9.17;;
7685;SDS011;3885;51.474;-2.576;2023-02-15T01:35:31;23.77;;;10.87;;
7685;SDS011;3885;51.474;-2.576;2023-02-15T01:37:58;17.77;;;8.13;;
7685;SDS011;3885;51.474;-2.576;2023-02-15T01:40:25;17.70;;;9.20;;
7685;SDS011;3885;51.474;-2.576;2023-02-15T01:42:53;18.37;;;9.67;;
7685;SDS011;3885;51.474;-2.576;2023-02-15T01:45:22;25.03;;;11.43;;
7685;SDS011;3885;51.474;-2.576;2023-02-15T01:47:53;21.30;;;10.17;;
7685;SDS011;3885;51.474;-2.576;2023-02-15T01:50:22;19.83;;;8.63;;
7685;SDS011;3885;51.474;-2.576;2023-02-15T01:52:52;17.97;;;8.53;;
7685;SDS011;3885;51.474;-2.576;2023-02-15T01:55:24;27.47;;;9.80;;
7685;SDS011;3885;51.474;-2.576;2023-02-15T01:57:52;15.63;;;9.37;;
7685;SDS011;3885;51.474;-2.576;2023-02-15T02:00:19;24.87;;;10.27;;
7685;SDS011;3885;51.474;-2.576;2023-02-15T02:02:48;19.83;;;10.37;;
7685;SDS011;3885;51.474;-2.576;2023-02-15T02:05:20;21.13;;;10.57;;
7685;SDS011;3885;51.474;-2.576;2023-02-15T02:07:48;24.93;;;10.13;;
7685;SDS011;3885;51.474;-2.576;2023-02-15T02:10:17;23.73;;;9.70;;
7685;SDS011;3885;51.474;-2.576;2023-02-15T02:12:45;26.87;;;11.63;;
7685;SDS011;3885;51.474;-2.576;2023-02-15T02:15:14;18.77;;;9.70;;
7685;SDS011;3885;51.474;-2.576;2023-02-15T02:17:44;22.33;;;10.27;;
7685;SDS011;3885;51.474;-2.576;2023-02-15T02:20:16;22.10;;;9.40;;
7685;SDS011;3885;51.474;-2.576;2023-02-15T02:23:06;30.00;;;12.80;;
7685;SDS011;3885;51.474;-2.576;2023-02-15T02:28:59;22.03;;;10.13;;
7685;SDS011;3885;51.474;-2.576;2023-02-15T02:31:41;25.80;;;11.07;;
7685;SDS011;3885;51.474;-2.576;2023-02-15T02:34:12;20.77;;;10.27;;
7685;SDS011;3885;51.474;-2.576;2023-02-15T02:36:44;24.47;;;11.60;;
7685;SDS011;3885;51.474;-2.576;2023-02-15T02:39:20;22.47;;;11.40;;
7685;SDS011;3885;51.474;-2.576;2023-02-15T02:41:56;21.47;;;10.33;;
7685;SDS011;3885;51.474;-2.576;2023-02-15T02:44:26;21.47;;;11.27;;
7685;SDS011;3885;51.474;-2.576;2023-02-15T02:46:58;20.77;;;11.93;;
7685;SDS011;3885;51.474;-2.576;2023-02-15T02:49:31;29.00;;;11.83;;
7685;SDS011;3885;51.474;-2.576;2023-02-15T02:51:59;24.43;;;10.67;;
7685;SDS011;3885;51.474;-2.576;2023-02-15T02:54:27;27.37;;;12.60;;
7685;SDS011;3885;51.474;-2.576;2023-02-15T02:56:54;20.67;;;10.97;;
7685;SDS011;3885;51.474;-2.576;2023-02-15T02:59:24;20.97;;;11.30;;
7685;SDS011;3885;51.474;-2.576;2023-02-15T03:01:53;31.90;;;12.40;;
7685;SDS011;3885;51.474;-2.576;2023-02-15T03:04:22;29.80;;;13.27;;
7685;SDS011;3885;51.474;-2.576;2023-02-15T03:06:57;30.63;;;13.40;;
7685;SDS011;3885;51.474;-2.576;2023-02-15T03:09:25;28.53;;;11.90;;
7685;SDS011;3885;51.474;-2.576;2023-02-15T03:11:59;23.60;;;12.20;;
7685;SDS011;3885;51.474;-2.576;2023-02-15T03:14:28;20.33;;;11.93;;
7685;SDS011;3885;51.474;-2.576;2023-02-15T03:16:55;23.60;;;11.53;;
7685;SDS011;3885;51.474;-2.576;2023-02-15T03:19:23;31.43;;;11.83;;
7685;SDS011;3885;51.474;-2.576;2023-02-15T03:21:55;22.43;;;11.77;;
7685;SDS011;3885;51.474;-2.576;2023-02-15T03:24:28;30.07;;;12.33;;
7685;SDS011;3885;51.474;-2.576;2023-02-15T03:26:58;26.97;;;12.60;;
7685;SDS011;3885;51.474;-2.576;2023-02-15T03:29:26;32.07;;;13.13;;
7685;SDS011;3885;51.474;-2.576;2023-02-15T03:31:54;29.40;;;12.90;;
7685;SDS011;3885;51.474;-2.576;2023-02-15T03:34:23;31.67;;;13.03;;
7685;SDS011;3885;51.474;-2.576;2023-02-15T03:36:52;27.80;;;13.30;;
7685;SDS011;3885;51.474;-2.576;2023-02-15T03:39:25;40.57;;;13.60;;
7685;SDS011;3885;51.474;-2.576;2023-02-15T03:41:56;34.47;;;13.07;;
7685;SDS011;3885;51.474;-2.576;2023-02-15T03:44:27;30.50;;;13.00;;
7685;SDS011;3885;51.474;-2.576;2023-02-15T03:46:58;31.67;;;14.00;;
7685;SDS011;3885;51.474;-2.576;2023-02-15T03:49:27;29.00;;;13.93;;
7685;SDS011;3885;51.474;-2.576;2023-02-15T03:51:56;39.80;;;16.10;;
7685;SDS011;3885;51.474;-2.576;2023-02-15T03:54:28;35.13;;;15.70;;
7685;SDS011;3885;51.474;-2.576;2023-02-15T03:57:16;30.70;;;15.67;;
7685;SDS011;3885;51.474;-2.576;2023-02-15T04:00:03;28.20;;;14.30;;
7685;SDS011;3885;51.474;-2.576;2023-02-15T04:05:33;35.47;;;17.10;;
7685;SDS011;3885;51.474;-2.576;2023-02-15T04:08:00;27.53;;;12.67;;
7685;SDS011;3885;51.474;-2.576;2023-02-15T04:10:29;38.13;;;15.40;;
7685;SDS011;3885;51.474;-2.576;2023-02-15T04:13:14;27.30;;;15.40;;
7685;SDS011;3885;51.474;-2.576;2023-02-15T04:15:41;39.67;;;15.37;;
7685;SDS011;3885;51.474;-2.576;2023-02-15T04:18:26;35.40;;;13.57;;
7685;SDS011;3885;51.474;-2.576;2023-02-15T04:21:10;34.70;;;16.20;;
7685;SDS011;3885;51.474;-2.576;2023-02-15T04:23:55;35.10;;;14.43;;
7685;SDS011;3885;51.474;-2.576;2023-02-15T04:26:41;30.10;;;15.03;;
7685;SDS011;3885;51.474;-2.576;2023-02-15T04:29:09;35.37;;;14.83;;
7685;SDS011;3885;51.474;-2.576;2023-02-15T04:31:36;36.20;;;15.17;;
7685;SDS011;3885;51.474;-2.576;2023-02-15T04:34:03;31.27;;;15.63;;
7685;SDS011;3885;51.474;-2.576;2023-02-15T04:36:30;32.20;;;15.20;;
7685;SDS011;3885;51.474;-2.576;2023-02-15T04:38:57;38.37;;;18.30;;
7685;SDS011;3885;51.474;-2.576;2023-02-15T04:41:24;34.43;;;16.17;;
7685;SDS011;3885;51.474;-2.576;2023-02-15T04:43:53;35.47;;;15.17;;
7685;SDS011;3885;51.474;-2.576;2023-02-15T04:46:21;34.20;;;14.70;;
7685;SDS011;3885;51.474;-2.576;2023-02-15T04:48:48;38.93;;;15.40;;
7685;SDS011;3885;51.474;-2.576;2023-02-15T04:51:15;36.40;;;15.53;;
7685;SDS011;3885;51.474;-2.576;2023-02-15T04:53:43;35.80;;;14.83;;
7685;SDS011;3885;51.474;-2.576;2023-02-15T04:56:11;30.30;;;14.03;;
7685;SDS011;3885;51.474;-2.576;2023-02-15T04:58:38;32.10;;;13.73;;
7685;SDS011;3885;51.474;-2.576;2023-02-15T05:01:07;32.53;;;16.23;;
7685;SDS011;3885;51.474;-2.576;2023-02-15T05:03:35;34.37;;;15.03;;
7685;SDS011;3885;51.474;-2.576;2023-02-15T05:06:02;32.47;;;15.30;;
7685;SDS011;3885;51.474;-2.576;2023-02-15T05:08:30;33.03;;;16.77;;
7685;SDS011;3885;51.474;-2.576;2023-02-15T05:10:57;37.30;;;15.50;;
7685;SDS011;3885;51.474;-2.576;2023-02-15T05:13:24;34.87;;;15.57;;
7685;SDS011;3885;51.474;-2.576;2023-02-15T05:15:51;35.07;;;12.60;;
7685;SDS011;3885;51.474;-2.576;2023-02-15T05:18:21;31.73;;;16.20;;
7685;SDS011;3885;51.474;-2.576;2023-02-15T05:20:48;30.43;;;15.60;;
7685;SDS011;3885;51.474;-2.576;2023-02-15T05:23:16;28.10;;;13.63;;
7685;SDS011;3885;51.474;-2.576;2023-02-15T05:25:46;36.33;;;16.10;;
7685;SDS011;3885;51.474;-2.576;2023-02-15T05:28:30;36.13;;;15.10;;
7685;SDS011;3885;51.474;-2.576;2023-02-15T05:31:00;32.73;;;14.07;;
7685;SDS011;3885;51.474;-2.576;2023-02-15T05:33:31;28.10;;;14.20;;
7685;SDS011;3885;51.474;-2.576;2023-02-15T05:35:58;31.27;;;15.53;;
7685;SDS011;3885;51.474;-2.576;2023-02-15T05:38:26;44.03;;;14.67;;
7685;SDS011;3885;51.474;-2.576;2023-02-15T05:40:53;30.63;;;14.87;;
7685;SDS011;3885;51.474;-2.576;2023-02-15T05:43:20;29.90;;;15.10;;
7685;SDS011;3885;51.474;-2.576;2023-02-15T05:45:48;30.70;;;14.03;;
7685;SDS011;3885;51.474;-2.576;2023-02-15T05:48:15;33.97;;;14.40;;
7685;SDS011;3885;51.474;-2.576;2023-02-15T05:50:44;28.47;;;13.20;;
7685;SDS011;3885;51.474;-2.576;2023-02-15T05:53:11;28.10;;;14.53;;
7685;SDS011;3885;51.474;-2.576;2023-02-15T05:55:38;36.63;;;13.50;;
7685;SDS011;3885;51.474;-2.576;2023-02-15T05:58:06;35.57;;;15.90;;
7685;SDS011;3885;51.474;-2.576;2023-02-15T06:00:33;31.60;;;13.30;;
7685;SDS011;3885;51.474;-2.576;2023-02-15T06:03:01;38.37;;;15.40;;
7685;SDS011;3885;51.474;-2.576;2023-02-15T06:05:28;24.23;;;12.50;;
7685;SDS011;3885;51.474;-2.576;2023-02-15T06:07:56;28.97;;;13.53;;
7685;SDS011;3885;51.474;-2.576;2023-02-15T06:10:24;27.63;;;13.77;;
7685;SDS011;3885;51.474;-2.576;2023-02-15T06:12:50;31.80;;;15.07;;
7685;SDS011;3885;51.474;-2.576;2023-02-15T06:15:18;29.90;;;14.37;;
7685;SDS011;3885;51.474;-2.576;2023-02-15T06:17:45;29.63;;;14.40;;
7685;SDS011;3885;51.474;-2.576;2023-02-15T06:20:12;29.70;;;15.03;;
7685;SDS011;3885;51.474;-2.576;2023-02-15T06:22:39;34.33;;;15.27;;
7685;SDS011;3885;51.474;-2.576;2023-02-15T06:25:08;33.87;;;16.47;;
7685;SDS011;3885;51.474;-2.576;2023-02-15T06:27:36;35.10;;;15.33;;
7685;SDS011;3885;51.474;-2.576;2023-02-15T06:30:03;31.57;;;14.90;;
7685;SDS011;3885;51.474;-2.576;2023-02-15T06:32:31;35.00;;;16.13;;
7685;SDS011;3885;51.474;-2.576;2023-02-15T06:34:59;35.70;;;16.20;;
7685;SDS011;3885;51.474;-2.576;2023-02-15T06:37:26;32.90;;;17.00;;
7685;SDS011;3885;51.474;-2.576;2023-02-15T06:39:53;31.03;;;14.07;;
7685;SDS011;3885;51.474;-2.576;2023-02-15T06:42:21;35.03;;;13.60;;
7685;SDS011;3885;51.474;-2.576;2023-02-15T06:44:49;29.53;;;14.17;;
7685;SDS011;3885;51.474;-2.576;2023-02-15T06:47:16;33.73;;;14.77;;
7685;SDS011;3885;51.474;-2.576;2023-02-15T06:49:43;30.87;;;13.53;;
7685;SDS011;3885;51.474;-2.576;2023-02-15T06:52:10;29.97;;;12.43;;
7685;SDS011;3885;51.474;-2.576;2023-02-15T06:54:37;39.30;;;17.70;;
7685;SDS011;3885;51.474;-2.576;2023-02-15T06:57:04;34.23;;;16.30;;
7685;SDS011;3885;51.474;-2.576;2023-02-15T06:59:33;36.43;;;15.30;;
7685;SDS011;3885;51.474;-2.576;2023-02-15T07:02:00;40.77;;;19.33;;
7685;SDS011;3885;51.474;-2.576;2023-02-15T07:04:27;33.33;;;14.53;;
7685;SDS011;3885;51.474;-2.576;2023-02-15T07:06:55;34.70;;;13.83;;
7685;SDS011;3885;51.474;-2.576;2023-02-15T07:09:22;31.90;;;13.57;;
7685;SDS011;3885;51.474;-2.576;2023-02-15T07:11:49;30.13;;;14.10;;
7685;SDS011;3885;51.474;-2.576;2023-02-15T07:14:35;30.20;;;13.97;;
7685;SDS011;3885;51.474;-2.576;2023-02-15T07:17:02;29.23;;;15.77;;
7685;SDS011;3885;51.474;-2.576;2023-02-15T07:19:30;25.77;;;14.20;;
7685;SDS011;3885;51.474;-2.576;2023-02-15T07:21:57;27.70;;;14.40;;
7685;SDS011;3885;51.474;-2.576;2023-02-15T07:24:24;32.43;;;14.77;;
7685;SDS011;3885;51.474;-2.576;2023-02-15T07:26:51;29.27;;;14.13;;
7685;SDS011;3885;51.474;-2.576;2023-02-15T07:29:19;34.00;;;14.60;;
7685;SDS011;3885;51.474;-2.576;2023-02-15T07:31:47;28.13;;;13.00;;
7685;SDS011;3885;51.474;-2.576;2023-02-15T07:34:15;26.00;;;13.50;;
7685;SDS011;3885;51.474;-2.576;2023-02-15T07:36:42;33.87;;;15.80;;
7685;SDS011;3885;51.474;-2.576;2023-02-15T07:39:10;34.57;;;14.17;;
7685;SDS011;3885;51.474;-2.576;2023-02-15T07:41:37;26.83;;;12.70;;
7685;SDS011;3885;51.474;-2.576;2023-02-15T07:44:04;29.00;;;13.93;;
7685;SDS011;3885;51.474;-2.576;2023-02-15T07:46:32;27.37;;;13.37;;
7685;SDS011;3885;51.474;-2.576;2023-02-15T07:49:00;30.53;;;13.67;;
7685;SDS011;3885;51.474;-2.576;2023-02-15T07:51:28;39.30;;;16.20;;
7685;SDS011;3885;51.474;-2.576;2023-02-15T07:53:56;39.67;;;16.50;;
7685;SDS011;3885;51.474;-2.576;2023-02-15T07:56:23;29.53;;;14.20;;
7685;SDS011;3885;51.474;-2.576;2023-02-15T07:58:50;29.83;;;14.57;;
7685;SDS011;3885;51.474;-2.576;2023-02-15T08:01:17;26.27;;;13.70;;
7685;SDS011;3885;51.474;-2.576;2023-02-15T08:03:45;41.83;;;15.90;;
7685;SDS011;3885;51.474;-2.576;2023-02-15T08:06:14;40.17;;;16.37;;
7685;SDS011;3885;51.474;-2.576;2023-02-15T08:08:41;32.83;;;16.67;;
7685;SDS011;3885;51.474;-2.576;2023-02-15T08:11:14;22.33;;;11.93;;
7685;SDS011;3885;51.474;-2.576;2023-02-15T08:13:52;23.37;;;13.17;;
7685;SDS011;3885;51.474;-2.576;2023-02-15T08:16:25;26.50;;;14.47;;
7685;SDS011;3885;51.474;-2.576;2023-02-15T08:18:53;34.83;;;16.50;;
7685;SDS011;3885;51.474;-2.576;2023-02-15T08:21:22;27.67;;;13.30;;
7685;SDS011;3885;51.474;-2.576;2023-02-15T08:23:49;35.33;;;14.40;;
7685;SDS011;3885;51.474;-2.576;2023-02-15T08:26:16;28.43;;;15.80;;
7685;SDS011;3885;51.474;-2.576;2023-02-15T08:28:43;36.10;;;14.73;;
7685;SDS011;3885;51.474;-2.576;2023-02-15T08:31:11;32.10;;;14.47;;
7685;SDS011;3885;51.474;-2.576;2023-02-15T08:33:39;31.37;;;13.70;;
7685;SDS011;3885;51.474;-2.576;2023-02-15T08:36:07;29.33;;;14.87;;
7685;SDS011;3885;51.474;-2.576;2023-02-15T08:38:36;37.53;;;16.53;;
7685;SDS011;3885;51.474;-2.576;2023-02-15T08:41:11;42.10;;;16.10;;
7685;SDS011;3885;51.474;-2.576;2023-02-15T08:43:40;37.70;;;16.10;;
7685;SDS011;3885;51.474;-2.576;2023-02-15T08:46:07;41.43;;;14.90;;
7685;SDS011;3885;51.474;-2.576;2023-02-15T08:48:35;34.40;;;15.87;;
7685;SDS011;3885;51.474;-2.576;2023-02-15T08:51:06;34.17;;;15.73;;
7685;SDS011;3885;51.474;-2.576;2023-02-15T08:53:36;30.00;;;12.80;;
7685;SDS011;3885;51.474;-2.576;2023-02-15T08:56:04;36.50;;;16.60;;
7685;SDS011;3885;51.474;-2.576;2023-02-15T08:58:31;38.07;;;15.30;;
7685;SDS011;3885;51.474;-2.576;2023-02-15T09:00:59;30.27;;;15.30;;
7685;SDS011;3885;51.474;-2.576;2023-02-15T09:03:27;32.30;;;16.67;;
7685;SDS011;3885;51.474;-2.576;2023-02-15T09:05:58;34.03;;;14.93;;
7685;SDS011;3885;51.474;-2.576;2023-02-15T09:08:26;32.97;;;16.27;;
7685;SDS011;3885;51.474;-2.576;2023-02-15T09:11:03;32.50;;;15.73;;
7685;SDS011;3885;51.474;-2.576;2023-02-15T09:13:31;30.07;;;16.13;;
7685;SDS011;3885;51.474;-2.576;2023-02-15T09:15:59;42.83;;;15.60;;
7685;SDS011;3885;51.474;-2.576;2023-02-15T09:18:26;26.20;;;15.30;;
7685;SDS011;3885;51.474;-2.576;2023-02-15T09:20:54;34.97;;;16.80;;
7685;SDS011;3885;51.474;-2.576;2023-02-15T09:23:21;34.03;;;17.60;;
7685;SDS011;3885;51.474;-2.576;2023-02-15T09:25:49;32.13;;;16.17;;
7685;SDS011;3885;51.474;-2.576;2023-02-15T09:28:17;32.00;;;14.33;;
7685;SDS011;3885;51.474;-2.576;2023-02-15T09:30:44;25.70;;;14.87;;
7685;SDS011;3885;51.474;-2.576;2023-02-15T09:33:12;27.17;;;14.17;;
7685;SDS011;3885;51.474;-2.576;2023-02-15T09:35:39;28.17;;;12.60;;
7685;SDS011;3885;51.474;-2.576;2023-02-15T09:38:06;28.97;;;13.30;;
7685;SDS011;3885;51.474;-2.576;2023-02-15T09:40:36;27.30;;;13.73;;
7685;SDS011;3885;51.474;-2.576;2023-02-15T09:43:13;31.93;;;12.57;;
7685;SDS011;3885;51.474;-2.576;2023-02-15T09:45:51;21.63;;;11.37;;
7685;SDS011;3885;51.474;-2.576;2023-02-15T09:48:26;28.77;;;11.10;;
7685;SDS011;3885;51.474;-2.576;2023-02-15T09:51:02;16.60;;;9.67;;
7685;SDS011;3885;51.474;-2.576;2023-02-15T09:53:37;18.57;;;10.57;;
7685;SDS011;3885;51.474;-2.576;2023-02-15T09:56:09;19.20;;;10.13;;
7685;SDS011;3885;51.474;-2.576;2023-02-15T09:58:41;21.73;;;11.07;;
7685;SDS011;3885;51.474;-2.576;2023-02-15T10:01:19;20.90;;;9.90;;
7685;SDS011;3885;51.474;-2.576;2023-02-15T10:04:02;22.00;;;10.63;;
7685;SDS011;3885;51.474;-2.576;2023-02-15T10:06:32;15.07;;;8.97;;
7685;SDS011;3885;51.474;-2.576;2023-02-15T10:09:09;20.20;;;9.57;;
7685;SDS011;3885;51.474;-2.576;2023-02-15T10:11:41;22.37;;;8.87;;
7685;SDS011;3885;51.474;-2.576;2023-02-15T10:14:27;16.30;;;8.87;;
7685;SDS011;3885;51.474;-2.576;2023-02-15T10:17:11;17.37;;;7.90;;
7685;SDS011;3885;51.474;-2.576;2023-02-15T10:19:42;15.73;;;8.83;;
7685;SDS011;3885;51.474;-2.576;2023-02-15T10:22:19;21.10;;;7.50;;
7685;SDS011;3885;51.474;-2.576;2023-02-15T10:24:56;25.27;;;8.30;;
7685;SDS011;3885;51.474;-2.576;2023-02-15T10:27:32;17.97;;;8.37;;
7685;SDS011;3885;51.474;-2.576;2023-02-15T10:30:05;15.50;;;7.40;;
7685;SDS011;3885;51.474;-2.576;2023-02-15T10:32:36;13.87;;;8.47;;
7685;SDS011;3885;51.474;-2.576;2023-02-15T10:35:07;13.23;;;6.30;;
7685;SDS011;3885;51.474;-2.576;2023-02-15T10:37:52;16.07;;;8.77;;
7685;SDS011;3885;51.474;-2.576;2023-02-15T10:40:25;11.80;;;6.70;;
7685;SDS011;3885;51.474;-2.576;2023-02-15T10:43:06;18.10;;;8.07;;
7685;SDS011;3885;51.474;-2.576;2023-02-15T10:45:37;15.53;;;7.83;;
7685;SDS011;3885;51.474;-2.576;2023-02-15T10:48:29;15.70;;;7.40;;
7685;SDS011;3885;51.474;-2.576;2023-02-15T10:51:02;17.33;;;6.77;;
7685;SDS011;3885;51.474;-2.576;2023-02-15T10:53:38;13.27;;;7.10;;
7685;SDS011;3885;51.474;-2.576;2023-02-15T10:56:11;15.50;;;8.13;;
7685;SDS011;3885;51.474;-2.576;2023-02-15T10:58:43;12.00;;;5.73;;
7685;SDS011;3885;51.474;-2.576;2023-02-15T11:01:15;16.23;;;7.13;;
7685;SDS011;3885;51.474;-2.576;2023-02-15T11:03:55;15.60;;;5.73;;
7685;SDS011;3885;51.474;-2.576;2023-02-15T11:06:29;12.63;;;5.40;;
7685;SDS011;3885;51.474;-2.576;2023-02-15T11:08:57;12.80;;;5.43;;
7685;SDS011;3885;51.474;-2.576;2023-02-15T11:11:27;9.43;;;6.90;;
7685;SDS011;3885;51.474;-2.576;2023-02-15T11:13:58;15.70;;;6.67;;
7685;SDS011;3885;51.474;-2.576;2023-02-15T11:16:28;17.37;;;5.90;;
7685;SDS011;3885;51.474;-2.576;2023-02-15T11:18:58;16.77;;;6.80;;
7685;SDS011;3885;51.474;-2.576;2023-02-15T11:21:29;20.07;;;6.13;;
7685;SDS011;3885;51.474;-2.576;2023-02-15T11:24:07;13.50;;;6.60;;
7685;SDS011;3885;51.474;-2.576;2023-02-15T11:26:37;8.50;;;5.40;;
7685;SDS011;3885;51.474;-2.576;2023-02-15T11:29:08;18.63;;;5.27;;
7685;SDS011;3885;51.474;-2.576;2023-02-15T11:31:41;13.73;;;4.93;;
7685;SDS011;3885;51.474;-2.576;2023-02-15T11:34:13;18.23;;;7.07;;
7685;SDS011;3885;51.474;-2.576;2023-02-15T11:36:41;12.43;;;6.10;;
7685;SDS011;3885;51.474;-2.576;2023-02-15T11:39:11;19.27;;;6.30;;
7685;SDS011;3885;51.474;-2.576;2023-02-15T11:41:40;26.17;;;6.07;;
7685;SDS011;3885;51.474;-2.576;2023-02-15T11:44:11;18.37;;;6.90;;
7685;SDS011;3885;51.474;-2.576;2023-02-15T11:46:41;25.67;;;5.10;;
7685;SDS011;3885;51.474;-2.576;2023-02-15T11:49:12;26.60;;;6.70;;
7685;SDS011;3885;51.474;-2.576;2023-02-15T11:51:47;14.53;;;6.13;;
7685;SDS011;3885;51.474;-2.576;2023-02-15T11:54:16;6.70;;;4.43;;
7685;SDS011;3885;51.474;-2.576;2023-02-15T11:56:43;10.90;;;4.63;;
7685;SDS011;3885;51.474;-2.576;2023-02-15T11:59:11;15.60;;;4.53;;
7685;SDS011;3885;51.474;-2.576;2023-02-15T12:01:40;9.13;;;6.00;;
7685;SDS011;3885;51.474;-2.576;2023-02-15T12:04:10;12.57;;;5.67;;
7685;SDS011;3885;51.474;-2.576;2023-02-15T12:06:45;10.13;;;4.80;;
7685;SDS011;3885;51.474;-2.576;2023-02-15T12:09:16;11.70;;;5.30;;
7685;SDS011;3885;51.474;-2.576;2023-02-15T12:11:44;14.23;;;5.97;;
7685;SDS011;3885;51.474;-2.576;2023-02-15T12:14:12;17.37;;;7.13;;
7685;SDS011;3885;51.474;-2.576;2023-02-15T12:16:41;22.13;;;5.70;;
7685;SDS011;3885;51.474;-2.576;2023-02-15T12:19:24;19.67;;;6.80;;
7685;SDS011;3885;51.474;-2.576;2023-02-15T12:21:55;23.30;;;5.80;;
7685;SDS011;3885;51.474;-2.576;2023-02-15T12:24:23;13.63;;;5.57;;
7685;SDS011;3885;51.474;-2.576;2023-02-15T12:26:55;12.60;;;6.37;;
7685;SDS011;3885;51.474;-2.576;2023-02-15T12:29:25;14.50;;;5.27;;
7685;SDS011;3885;51.474;-2.576;2023-02-15T12:31:52;13.73;;;5.10;;
7685;SDS011;3885;51.474;-2.576;2023-02-15T12:34:21;11.33;;;5.20;;
7685;SDS011;3885;51.474;-2.576;2023-02-15T12:36:49;7.73;;;5.17;;
7685;SDS011;3885;51.474;-2.576;2023-02-15T12:39:25;19.70;;;7.13;;
7685;SDS011;3885;51.474;-2.576;2023-02-15T12:41:57;13.63;;;4.60;;
7685;SDS011;3885;51.474;-2.576;2023-02-15T12:44:25;10.53;;;5.00;;
7685;SDS011;3885;51.474;-2.576;2023-02-15T12:46:57;11.03;;;4.90;;
7685;SDS011;3885;51.474;-2.576;2023-02-15T12:49:25;11.93;;;5.27;;
7685;SDS011;3885;51.474;-2.576;2023-02-15T12:51:53;8.03;;;5.40;;
7685;SDS011;3885;51.474;-2.576;2023-02-15T12:54:32;12.00;;;5.60;;
7685;SDS011;3885;51.474;-2.576;2023-02-15T12:57:12;11.50;;;6.30;;
7685;SDS011;3885;51.474;-2.576;2023-02-15T12:59:54;23.97;;;4.80;;
7685;SDS011;3885;51.474;-2.576;2023-02-15T13:02:22;20.63;;;5.67;;
7685;SDS011;3885;51.474;-2.576;2023-02-15T13:04:50;10.53;;;5.30;;
7685;SDS011;3885;51.474;-2.576;2023-02-15T13:07:18;21.40;;;5.10;;
7685;SDS011;3885;51.474;-2.576;2023-02-15T13:09:47;22.80;;;5.43;;
7685;SDS011;3885;51.474;-2.576;2023-02-15T13:12:16;11.00;;;4.50;;
7685;SDS011;3885;51.474;-2.576;2023-02-15T13:14:44;10.37;;;4.50;;
7685;SDS011;3885;51.474;-2.576;2023-02-15T13:17:13;8.17;;;4.10;;
7685;SDS011;3885;51.474;-2.576;2023-02-15T13:19:43;22.53;;;4.60;;
7685;SDS011;3885;51.474;-2.576;2023-02-15T13:22:12;13.23;;;4.13;;
7685;SDS011;3885;51.474;-2.576;2023-02-15T13:24:41;9.53;;;4.90;;
7685;SDS011;3885;51.474;-2.576;2023-02-15T13:27:12;14.20;;;4.13;;
7685;SDS011;3885;51.474;-2.576;2023-02-15T13:29:42;11.03;;;4.10;;
7685;SDS011;3885;51.474;-2.576;2023-02-15T13:32:12;20.07;;;5.13;;
7685;SDS011;3885;51.474;-2.576;2023-02-15T13:34:50;11.50;;;5.03;;
7685;SDS011;3885;51.474;-2.576;2023-02-15T13:37:20;7.60;;;3.87;;
7685;SDS011;3885;51.474;-2.576;2023-02-15T13:39:57;7.90;;;4.03;;
7685;SDS011;3885;51.474;-2.576;2023-02-15T13:42:30;16.50;;;3.93;;
7685;SDS011;3885;51.474;-2.576;2023-02-15T13:45:08;19.20;;;4.53;;
7685;SDS011;3885;51.474;-2.576;2023-02-15T13:47:37;20.00;;;5.03;;
7685;SDS011;3885;51.474;-2.576;2023-02-15T13:50:27;10.63;;;4.63;;
7685;SDS011;3885;51.474;-2.576;2023-02-15T13:52:58;13.80;;;4.50;;
7685;SDS011;3885;51.474;-2.576;2023-02-15T13:55:37;11.43;;;4.60;;
7685;SDS011;3885;51.474;-2.576;2023-02-15T13:58:19;11.27;;;3.90;;
7685;SDS011;3885;51.474;-2.576;2023-02-15T14:01:09;15.50;;;5.80;;
7685;SDS011;3885;51.474;-2.576;2023-02-15T14:03:46;17.07;;;5.40;;
7685;SDS011;3885;51.474;-2.576;2023-02-15T14:09:30;16.70;;;4.97;;
7685;SDS011;3885;51.474;-2.576;2023-02-15T14:14:58;21.90;;;6.00;;
7685;SDS011;3885;51.474;-2.576;2023-02-15T14:17:38;73.47;;;8.33;;
7685;SDS011;3885;51.474;-2.576;2023-02-15T14:20:16;28.70;;;5.70;;
7685;SDS011;3885;51.474;-2.576;2023-02-15T14:22:49;12.37;;;4.93;;
7685;SDS011;3885;51.474;-2.576;2023-02-15T14:25:27;11.93;;;4.93;;
7685;SDS011;3885;51.474;-2.576;2023-02-15T14:28:01;14.43;;;4.03;;
7685;SDS011;3885;51.474;-2.576;2023-02-15T14:30:33;20.30;;;4.70;;
7685;SDS011;3885;51.474;-2.576;2023-02-15T14:33:04;9.30;;;4.53;;
7685;SDS011;3885;51.474;-2.576;2023-02-15T14:35:33;18.03;;;3.87;;
7685;SDS011;3885;51.474;-2.576;2023-02-15T14:38:04;12.80;;;5.50;;
7685;SDS011;3885;51.474;-2.576;2023-02-15T14:40:42;19.63;;;5.13;;
7685;SDS011;3885;51.474;-2.576;2023-02-15T14:43:30;11.37;;;5.77;;
7685;SDS011;3885;51.474;-2.576;2023-02-15T14:46:14;14.67;;;4.77;;
7685;SDS011;3885;51.474;-2.576;2023-02-15T14:48:47;5.20;;;2.80;;
7685;SDS011;3885;51.474;-2.576;2023-02-15T14:57:23;2.53;;;1.80;;
7685;SDS011;3885;51.474;-2.576;2023-02-15T14:59:52;1.20;;;1.10;;
7685;SDS011;3885;51.474;-2.576;2023-02-15T15:02:23;2.50;;;1.50;;
7685;SDS011;3885;51.474;-2.576;2023-02-15T15:04:59;3.80;;;1.40;;
7685;SDS011;3885;51.474;-2.576;2023-02-15T15:07:36;1.43;;;1.10;;
7685;SDS011;3885;51.474;-2.576;2023-02-15T15:10:04;4.73;;;1.03;;
7685;SDS011;3885;51.474;-2.576;2023-02-15T15:12:42;1.90;;;1.50;;
7685;SDS011;3885;51.474;-2.576;2023-02-15T15:15:13;1.17;;;1.07;;
7685;SDS011;3885;51.474;-2.576;2023-02-15T15:17:59;0.70;;;0.70;;
7685;SDS011;3885;51.474;-2.576;2023-02-15T15:20:42;2.10;;;0.90;;